Time;durP1;ratioP1;P1;durP2;ratioP2;P2;SDS_P1;SDS_P2;PMS_P1;PMS_P2;Temp;Humidity;BMP_temperature;BMP_pressure;BME280_temperature;BME280_humidity;BME280_pressure;Samples;Min_cycle;Max_cycle;Signal;HPM_P1;HPM_P2
2022/09/08 00:01:16;;;;;;;4.60;3.40;;;;;;;14.20;39.39;100569.79;107436;1274;22656;-90
2022/09/08 00:03:45;;;;;;;5.80;3.50;;;;;;;14.16;39.66;100568.80;109482;1274;22608;-87
2022/09/08 00:06:16;;;;;;;7.30;3.90;;;;;;;14.13;39.82;100567.46;107668;1274;25788;-84
2022/09/08 00:08:45;;;;;;;7.80;4.20;;;;;;;14.12;39.86;100567.83;106652;1278;23517;-80
2022/09/08 00:11:16;;;;;;;7.10;3.30;;;;;;;14.09;39.82;100563.63;105973;1275;23490;-80
2022/09/08 00:13:45;;;;;;;7.10;3.70;;;;;;;14.05;39.89;100564.77;105809;1277;25326;-79
2022/09/08 00:16:12;;;;;;;5.90;3.90;;;;;;;14.03;39.91;100563.41;106106;1274;22674;-77
2022/09/08 00:18:41;;;;;;;8.00;3.60;;;;;;;14.02;40.09;100563.77;106103;1269;26692;-83
2022/09/08 00:21:08;;;;;;;5.90;3.70;;;;;;;14.01;40.07;100562.91;106364;1268;25423;-83
2022/09/08 00:23:36;;;;;;;7.90;3.90;;;;;;;13.98;40.18;100561.19;105768;1275;22545;-79
2022/09/08 00:26:03;;;;;;;7.70;4.00;;;;;;;13.96;40.18;100562.84;105653;1281;24210;-84
2022/09/08 00:28:30;;;;;;;7.60;3.50;;;;;;;13.93;40.32;100562.55;105674;1281;25362;-84
2022/09/08 00:30:59;;;;;;;5.80;3.90;;;;;;;13.91;40.36;100564.00;105801;1277;25288;-82
2022/09/08 00:33:28;;;;;;;7.10;3.70;;;;;;;13.89;40.27;100562.98;105667;1281;22605;-82
2022/09/08 00:35:58;;;;;;;5.70;3.50;;;;;;;13.80;40.16;100562.96;105544;1283;22562;-83
2022/09/08 00:38:26;;;;;;;6.40;3.60;;;;;;;13.74;40.23;100567.34;105770;1281;24225;-82
2022/09/08 00:40:53;;;;;;;4.90;2.90;;;;;;;13.70;40.20;100568.30;105962;1275;25752;-82
2022/09/08 00:43:42;;;;;;;5.90;3.40;;;;;;;13.64;40.14;100564.85;106165;1274;26565;-78
2022/09/08 00:46:09;;;;;;;7.70;3.30;;;;;;;13.57;40.24;100560.58;106310;1268;26513;-84
2022/09/08 00:48:43;;;;;;;5.50;3.10;;;;;;;13.50;40.28;100553.98;106388;1269;23946;-81
2022/09/08 00:51:12;;;;;;;7.50;3.50;;;;;;;13.44;40.38;100553.53;106336;1268;26482;-85
2022/09/08 00:53:39;;;;;;;6.50;3.40;;;;;;;13.41;40.45;100549.16;106548;1268;26474;-81
2022/09/08 00:56:07;;;;;;;5.50;3.40;;;;;;;13.44;40.53;100544.16;106206;1274;24225;-81
2022/09/08 00:58:39;;;;;;;4.60;3.10;;;;;;;13.47;40.46;100542.69;106366;1268;22563;-79
2022/09/08 01:01:08;;;;;;;5.70;3.10;;;;;;;13.51;40.63;100539.82;106277;1268;22616;-78
2022/09/08 01:03:39;;;;;;;13.30;3.00;;;;;;;13.52;40.57;100540.15;106392;1268;23959;-76
2022/09/08 01:12:43;;;;;;;9.10;3.30;;;;;;;13.51;40.60;100537.52;106075;1274;24259;-78
2022/09/08 01:14:57;;;;;;;6.00;4.10;;;;;;;13.51;40.81;100547.26;105869;1277;25373;-79
2022/09/08 01:17:27;;;;;;;7.00;3.10;;;;;;;13.51;40.88;100545.12;105968;1278;25990;-77
2022/09/08 01:19:56;;;;;;;6.10;3.50;;;;;;;13.49;40.81;100538.25;105958;1281;23948;-77
2022/09/08 01:22:45;;;;;;;5.60;3.50;;;;;;;13.49;40.92;100543.54;105596;1278;24227;-75
2022/09/08 01:26:08;;;;;;;10.30;3.70;;;;;;;13.45;40.90;100545.37;105581;1281;22758;-81
2022/09/08 01:28:47;;;;;;;7.50;3.60;;;;;;;13.43;41.21;100543.11;105840;1280;25418;-84
2022/09/08 01:31:14;;;;;;;9.30;3.80;;;;;;;13.37;41.49;100545.86;105564;1280;22703;-84
2022/09/08 01:33:42;;;;;;;7.10;3.50;;;;;;;13.35;41.56;100545.38;105967;1274;24239;-80
2022/09/08 01:36:13;;;;;;;6.50;3.50;;;;;;;13.33;41.88;100545.08;106054;1275;22648;-80
2022/09/08 01:38:40;;;;;;;6.80;4.00;;;;;;;13.30;41.99;100542.81;106310;1275;23914;-82
2022/09/08 01:41:08;;;;;;;6.00;3.30;;;;;;;13.29;42.05;100542.48;106701;1275;22820;-81
2022/09/08 01:43:36;;;;;;;6.10;3.60;;;;;;;13.27;42.04;100537.92;106763;1270;25347;-83
2022/09/08 01:46:03;;;;;;;4.70;3.10;;;;;;;13.23;42.12;100541.88;107206;1268;23182;-82
2022/09/08 01:48:30;;;;;;;7.00;3.80;;;;;;;13.21;42.28;100543.14;106755;1267;22616;-85
2022/09/08 01:51:03;;;;;;;6.70;3.60;;;;;;;13.20;42.42;100545.65;106236;1267;22545;-82
2022/09/08 01:53:30;;;;;;;7.00;3.80;;;;;;;13.18;42.50;100548.67;105817;1275;22538;-85
2022/09/08 01:55:57;;;;;;;6.10;3.10;;;;;;;13.17;42.57;100547.46;105921;1273;25487;-82
2022/09/08 01:58:25;;;;;;;8.40;3.40;;;;;;;13.15;42.66;100548.73;106292;1274;23237;-79
2022/09/08 02:00:52;;;;;;;7.30;3.50;;;;;;;13.14;42.85;100546.63;106840;1273;22626;-77
2022/09/08 02:03:19;;;;;;;7.70;3.60;;;;;;;13.12;42.82;100542.06;106369;1274;22557;-78
2022/09/08 02:05:46;;;;;;;4.70;2.90;;;;;;;13.06;43.01;100541.45;106212;1273;24232;-78
2022/09/08 02:08:14;;;;;;;6.20;3.50;;;;;;;13.02;43.06;100545.42;107082;1274;22933;-80
2022/09/08 02:10:41;;;;;;;8.40;3.50;;;;;;;13.00;43.20;100545.98;106937;1273;23930;-79
2022/09/08 02:13:08;;;;;;;5.40;3.20;;;;;;;12.95;43.31;100542.19;106478;1269;26620;-82
2022/09/08 02:15:38;;;;;;;4.70;3.10;;;;;;;12.90;43.52;100536.96;106660;1268;24196;-80
2022/09/08 02:18:05;;;;;;;6.20;3.20;;;;;;;12.85;43.49;100533.69;106420;1268;23020;-78
2022/09/08 02:20:32;;;;;;;5.60;3.40;;;;;;;12.80;43.61;100532.88;106388;1268;24284;-79
2022/09/08 02:22:59;;;;;;;7.50;3.30;;;;;;;12.73;43.72;100538.81;106291;1267;22525;-81
2022/09/08 02:25:26;;;;;;;5.60;3.50;;;;;;;12.71;43.87;100537.24;107106;1268;22703;-84
2022/09/08 02:27:53;;;;;;;5.20;3.40;;;;;;;12.69;43.95;100535.34;107443;1271;22701;-79
2022/09/08 02:30:22;;;;;;;6.00;3.20;;;;;;;12.69;43.96;100538.35;106430;1268;23173;-83
2022/09/08 02:32:49;;;;;;;7.20;3.50;;;;;;;12.64;44.08;100542.31;106990;1275;22574;-79
2022/09/08 02:35:17;;;;;;;6.50;3.60;;;;;;;12.64;44.41;100549.91;106882;1277;25826;-79
2022/09/08 02:37:45;;;;;;;5.40;3.20;;;;;;;12.63;44.35;100556.46;108892;1278;22571;-85
2022/09/08 02:40:12;;;;;;;6.30;3.40;;;;;;;12.59;44.31;100557.22;108428;1284;22593;-83
2022/09/08 02:42:40;;;;;;;6.20;3.10;;;;;;;12.52;44.29;100558.56;106820;1284;24452;-84
2022/09/08 02:45:10;;;;;;;5.40;3.20;;;;;;;12.48;44.47;100555.61;108447;1284;22729;-87
2022/09/08 02:47:37;;;;;;;5.10;3.30;;;;;;;12.47;44.42;100555.27;107219;1284;22798;-80
2022/09/08 02:50:05;;;;;;;6.70;3.40;;;;;;;12.48;44.52;100547.49;105667;1285;26616;-84
2022/09/08 02:52:33;;;;;;;8.80;3.60;;;;;;;12.47;44.60;100545.20;106108;1278;22708;-82
2022/09/08 02:55:00;;;;;;;5.60;3.00;;;;;;;12.47;44.64;100540.61;106469;1276;22665;-77
2022/09/08 02:57:27;;;;;;;6.50;3.50;;;;;;;12.44;44.73;100542.42;106793;1274;23961;-82
2022/09/08 02:59:54;;;;;;;6.10;3.40;;;;;;;12.40;44.66;100548.49;106462;1271;23919;-82
2022/09/08 03:02:21;;;;;;;5.80;3.40;;;;;;;12.32;44.70;100550.00;106299;1268;24262;-81
2022/09/08 03:04:49;;;;;;;7.00;3.50;;;;;;;12.28;44.89;100549.71;106267;1271;25558;-81
2022/09/08 03:07:18;;;;;;;8.20;3.90;;;;;;;12.25;44.75;100546.40;106273;1268;22588;-83
2022/09/08 03:09:46;;;;;;;7.30;3.50;;;;;;;12.18;44.87;100552.13;106301;1271;22570;-78
2022/09/08 03:12:13;;;;;;;7.20;3.30;;;;;;;12.15;45.08;100551.98;106249;1270;22691;-81
2022/09/08 03:14:40;;;;;;;7.80;3.60;;;;;;;12.15;45.22;100554.64;106264;1268;25418;-84
2022/09/08 03:17:07;;;;;;;9.10;4.30;;;;;;;12.13;45.20;100556.43;106314;1268;24275;-80
2022/09/08 03:19:34;;;;;;;5.00;3.50;;;;;;;12.11;45.26;100550.80;106280;1269;22568;-77
2022/09/08 03:22:01;;;;;;;5.80;3.30;;;;;;;12.08;45.29;100546.42;106246;1268;22627;-81
2022/09/08 03:24:30;;;;;;;7.30;3.50;;;;;;;12.02;45.40;100543.13;106218;1268;22546;-80
2022/09/08 03:26:57;;;;;;;7.40;3.40;;;;;;;12.00;45.50;100542.45;106219;1268;23184;-78
2022/09/08 03:29:24;;;;;;;6.40;3.80;;;;;;;12.00;45.71;100542.10;106165;1269;24274;-81
2022/09/08 03:31:51;;;;;;;5.00;3.40;;;;;;;11.97;45.78;100540.55;106140;1274;23516;-82
2022/09/08 03:34:18;;;;;;;5.40;3.30;;;;;;;11.96;45.82;100540.39;106007;1274;22574;-78
2022/09/08 03:36:45;;;;;;;8.60;3.90;;;;;;;11.86;45.70;100533.97;105566;1277;22561;-78
2022/09/08 03:39:12;;;;;;;8.50;3.60;;;;;;;11.77;45.81;100532.14;105529;1277;23608;-80
2022/09/08 03:41:39;;;;;;;4.80;3.40;;;;;;;11.71;46.07;100536.61;105671;1278;24261;-78
2022/09/08 03:44:08;;;;;;;8.20;3.90;;;;;;;11.69;46.13;100533.80;105611;1280;22547;-77
2022/09/08 03:46:35;;;;;;;7.00;3.60;;;;;;;11.66;46.23;100533.14;105772;1277;22758;-79
2022/09/08 03:49:03;;;;;;;6.30;3.60;;;;;;;11.64;46.30;100535.64;105573;1278;22804;-78
2022/09/08 03:51:32;;;;;;;8.00;4.10;;;;;;;11.65;46.49;100537.91;105958;1275;22531;-78
2022/09/08 03:56:48;;;;;;;6.90;3.50;;;;;;;11.63;46.54;100542.53;105711;1274;22540;-79
2022/09/08 03:59:15;;;;;;;7.60;3.10;;;;;;;11.59;46.58;100544.87;105183;1282;22542;-78
2022/09/08 04:01:43;;;;;;;7.70;3.70;;;;;;;11.58;46.68;100547.88;105478;1282;22690;-78
2022/09/08 04:04:10;;;;;;;6.10;3.00;;;;;;;11.56;46.69;100547.02;105176;1282;25236;-77
2022/09/08 04:11:03;;;;;;;4.60;3.40;;;;;;;11.47;46.91;100538.83;104777;1287;25547;-78
2022/09/08 04:13:30;;;;;;;7.10;3.60;;;;;;;11.49;47.05;100540.20;104747;1288;23149;-82
2022/09/08 04:15:58;;;;;;;6.50;2.80;;;;;;;11.51;46.93;100543.35;105069;1284;22567;-82
2022/09/08 04:18:25;;;;;;;6.60;3.00;;;;;;;11.53;47.03;100537.52;105706;1276;22531;-83
2022/09/08 04:21:00;;;;;;;7.60;3.70;;;;;;;11.54;47.02;100535.74;106042;1275;24414;-82
2022/09/08 04:23:28;;;;;;;4.20;2.90;;;;;;;11.54;47.00;100535.92;106198;1277;22532;-83
2022/09/08 04:26:04;;;;;;;7.90;3.20;;;;;;;11.51;46.90;100543.72;106603;1268;24973;-87
2022/09/08 04:28:33;;;;;;;15.30;3.60;;;;;;;11.45;47.04;100536.55;106858;1268;22531;-86
2022/09/08 04:31:09;;;;;;;7.20;3.10;;;;;;;11.42;47.15;100528.81;106533;1274;22536;-84
2022/09/08 04:33:37;;;;;;;4.50;3.20;;;;;;;11.43;47.19;100525.45;106492;1274;22600;-86
2022/09/08 04:36:10;;;;;;;7.50;3.10;;;;;;;11.46;47.11;100528.95;106203;1277;23930;-85
2022/09/08 04:38:53;;;;;;;5.50;3.20;;;;;;;11.49;47.08;100526.44;106471;1274;22695;-85
2022/09/08 04:41:20;;;;;;;6.20;4.00;;;;;;;11.50;47.11;100525.20;106548;1274;23339;-84
2022/09/08 04:43:47;;;;;;;6.50;2.90;;;;;;;11.48;46.98;100521.52;106596;1274;25916;-83
2022/09/08 04:46:17;;;;;;;5.70;3.20;;;;;;;11.45;47.18;100522.44;106814;1274;22752;-84
2022/09/08 04:48:45;;;;;;;8.40;3.60;;;;;;;11.48;47.36;100530.52;106715;1271;22704;-82
2022/09/08 04:51:16;;;;;;;10.00;3.70;;;;;;;11.50;47.29;100540.36;106674;1275;23213;-82
2022/09/08 04:53:44;;;;;;;7.70;3.40;;;;;;;11.53;47.23;100540.51;106421;1277;22859;-80
2022/09/08 04:56:13;;;;;;;5.20;3.00;;;;;;;11.54;47.16;100542.27;107251;1277;22947;-87
2022/09/08 04:58:42;;;;;;;7.50;3.30;;;;;;;11.56;47.12;100534.85;107556;1281;22843;-87
2022/09/08 05:01:13;;;;;;;6.60;3.90;;;;;;;11.59;46.99;100538.33;107490;1286;22582;-80
2022/09/08 05:03:40;;;;;;;8.20;3.30;;;;;;;11.62;47.05;100540.59;107557;1287;24380;-80
2022/09/08 05:06:14;;;;;;;6.10;3.20;;;;;;;11.63;47.06;100539.52;107588;1286;22803;-78
2022/09/08 05:08:50;;;;;;;8.60;3.50;;;;;;;11.69;47.00;100538.23;106207;1282;23038;-77
2022/09/08 05:11:18;;;;;;;7.60;3.50;;;;;;;11.74;47.01;100538.88;105547;1278;24371;-79
2022/09/08 05:13:46;;;;;;;4.70;3.00;;;;;;;11.77;46.99;100540.27;106343;1277;22532;-83
2022/09/08 05:16:16;;;;;;;8.90;3.20;;;;;;;11.82;46.91;100543.89;106650;1275;26577;-79
2022/09/08 05:18:55;;;;;;;5.50;3.80;;;;;;;11.86;46.92;100547.38;106190;1268;24206;-78
2022/09/08 05:21:23;;;;;;;6.60;3.20;;;;;;;11.91;46.92;100545.21;106492;1268;22727;-78
2022/09/08 05:23:52;;;;;;;10.50;3.80;;;;;;;11.96;46.81;100549.56;106588;1268;23953;-80
2022/09/08 05:26:21;;;;;;;9.60;3.20;;;;;;;12.03;46.87;100553.35;106609;1268;22518;-79
2022/09/08 05:28:48;;;;;;;9.10;3.10;;;;;;;12.12;46.78;100559.10;106769;1268;22534;-81
2022/09/08 05:31:19;;;;;;;11.40;3.70;;;;;;;12.20;46.85;100559.36;107115;1270;24262;-78
2022/09/08 05:33:47;;;;;;;8.70;3.50;;;;;;;12.29;46.67;100555.17;107392;1270;22725;-79
2022/09/08 05:36:23;;;;;;;14.10;4.10;;;;;;;12.37;46.67;100551.52;107133;1271;22736;-77
2022/09/08 05:38:51;;;;;;;9.10;3.70;;;;;;;12.44;46.39;100550.38;107520;1268;23838;-77
2022/09/08 05:41:19;;;;;;;9.30;3.70;;;;;;;12.53;46.24;100553.95;107590;1268;22707;-75
2022/09/08 05:43:46;;;;;;;19.00;3.80;;;;;;;12.61;46.49;100551.70;108094;1268;22546;-76
2022/09/08 05:46:13;;;;;;;11.10;3.60;;;;;;;12.72;46.15;100543.95;106948;1268;25244;-78
2022/09/08 05:48:46;;;;;;;19.10;4.40;;;;;;;12.85;45.93;100539.69;106517;1268;24272;-76
2022/09/08 05:51:20;;;;;;;13.70;3.20;;;;;;;12.96;45.86;100544.45;106575;1270;22694;-76
2022/09/08 05:53:48;;;;;;;21.50;4.10;;;;;;;13.07;45.61;100545.88;106492;1270;22536;-78
2022/09/08 05:56:19;;;;;;;19.00;4.10;;;;;;;13.15;45.34;100546.96;106356;1268;22537;-79
2022/09/08 05:58:55;;;;;;;7.60;3.30;;;;;;;13.22;45.28;100543.13;106440;1268;22536;-78
2022/09/08 06:01:30;;;;;;;10.60;3.70;;;;;;;13.27;45.09;100531.04;106362;1268;22543;-76
2022/09/08 06:03:59;;;;;;;17.00;4.40;;;;;;;13.34;45.21;100528.23;106459;1269;25648;-74
2022/09/08 06:06:27;;;;;;;10.40;4.10;;;;;;;13.40;45.08;100530.97;106419;1268;22547;-78
2022/09/08 06:08:56;;;;;;;12.00;3.10;;;;;;;13.44;44.92;100536.00;106657;1268;22872;-76
2022/09/08 06:11:23;;;;;;;10.30;3.20;;;;;;;13.48;44.80;100539.30;106330;1268;25422;-79
2022/09/08 06:13:51;;;;;;;16.60;3.30;;;;;;;13.55;44.78;100541.69;106587;1268;24798;-80
2022/09/08 06:16:18;;;;;;;10.00;3.50;;;;;;;13.64;44.65;100538.85;106994;1268;25252;-78
2022/09/08 06:18:46;;;;;;;12.30;3.50;;;;;;;13.68;44.50;100530.48;106802;1268;25355;-76
2022/09/08 06:21:19;;;;;;;6.90;3.50;;;;;;;13.74;44.57;100529.65;106436;1268;22712;-78
2022/09/08 06:23:52;;;;;;;19.60;4.10;;;;;;;13.80;44.38;100527.05;106493;1276;24204;-75
2022/09/08 06:26:54;;;;;;;5.90;3.20;;;;;;;13.86;44.42;100521.63;105941;1274;26610;-79
2022/09/08 06:29:24;;;;;;;7.90;3.00;;;;;;;13.94;44.46;100522.69;106124;1274;24314;-76
2022/09/08 06:32:23;;;;;;;9.50;4.20;;;;;;;13.98;44.29;100518.71;106035;1274;22869;-73
2022/09/08 06:35:16;;;;;;;7.90;3.10;;;;;;;14.07;43.92;100523.30;105831;1279;22809;-75
2022/09/08 06:37:49;;;;;;;5.10;2.90;;;;;;;14.16;43.81;100528.78;105742;1280;22810;-75
2022/09/08 06:40:28;;;;;;;4.70;3.30;;;;;;;14.24;43.73;100528.59;105550;1281;22549;-75
2022/09/08 06:42:59;;;;;;;5.90;3.10;;;;;;;14.33;43.56;100525.03;105859;1276;24302;-77
2022/09/08 06:45:48;;;;;;;9.00;3.40;;;;;;;14.45;43.58;100523.17;106108;1274;22559;-77
2022/09/08 06:48:15;;;;;;;6.60;3.40;;;;;;;14.56;43.67;100528.61;105925;1275;22544;-77
2022/09/08 06:51:03;;;;;;;4.60;3.40;;;;;;;14.68;43.38;100525.85;105934;1275;23950;-78
2022/09/08 06:53:42;;;;;;;5.10;2.90;;;;;;;14.81;43.03;100524.30;106134;1268;25305;-77
2022/09/08 06:56:23;;;;;;;5.60;3.00;;;;;;;14.93;42.83;100522.61;106284;1269;22515;-75
2022/09/08 06:59:35;;;;;;;7.50;3.00;;;;;;;15.05;42.40;100529.21;106515;1268;24212;-76
2022/09/08 07:02:34;;;;;;;10.20;2.90;;;;;;;15.13;42.48;100533.80;106425;1270;23817;-79
2022/09/08 07:05:07;;;;;;;11.80;2.80;;;;;;;15.18;42.35;100537.04;106277;1269;24265;-76
2022/09/08 07:07:48;;;;;;;10.60;3.20;;;;;;;15.24;42.21;100541.86;106513;1269;24282;-77
2022/09/08 07:10:21;;;;;;;6.30;2.70;;;;;;;15.31;41.93;100540.60;106353;1268;24198;-76
2022/09/08 07:12:50;;;;;;;5.50;3.00;;;;;;;15.40;41.55;100542.88;106033;1274;24777;-75
2022/09/08 07:15:20;;;;;;;7.50;2.90;;;;;;;15.51;41.50;100542.03;106120;1274;22548;-77
2022/09/08 07:18:09;;;;;;;4.00;2.60;;;;;;;15.65;41.36;100545.73;106097;1274;24207;-74
2022/09/08 07:20:37;;;;;;;5.50;2.50;;;;;;;15.82;41.14;100538.15;105914;1275;23230;-77
2022/09/08 07:23:11;;;;;;;6.00;2.60;;;;;;;15.95;40.97;100534.06;106077;1274;25548;-76
2022/09/08 07:25:55;;;;;;;7.20;2.80;;;;;;;16.05;40.64;100533.42;105928;1275;22968;-76
2022/09/08 07:28:26;;;;;;;3.60;2.50;;;;;;;16.13;40.55;100535.00;106043;1274;24264;-78
2022/09/08 07:30:59;;;;;;;5.80;2.60;;;;;;;16.14;40.28;100534.05;106143;1270;22525;-77
2022/09/08 07:33:40;;;;;;;6.60;2.60;;;;;;;16.18;40.06;100529.14;106325;1270;22525;-78
2022/09/08 07:36:25;;;;;;;8.10;2.80;;;;;;;16.20;39.99;100524.84;106295;1268;22643;-78
2022/09/08 07:38:54;;;;;;;3.70;2.30;;;;;;;16.23;39.88;100519.05;106316;1270;24365;-76
2022/09/08 07:41:47;;;;;;;7.00;2.70;;;;;;;16.30;40.13;100524.70;106257;1271;24312;-78
2022/09/08 07:44:16;;;;;;;5.40;2.80;;;;;;;16.38;39.80;100527.66;106187;1270;22727;-77
2022/09/08 07:47:10;;;;;;;4.70;2.20;;;;;;;16.44;39.59;100524.98;106379;1270;25390;-78
2022/09/08 07:50:15;;;;;;;4.70;2.30;;;;;;;16.52;39.35;100527.95;106208;1270;22760;-79
2022/09/08 07:52:42;;;;;;;6.90;2.30;;;;;;;16.59;39.47;100532.67;106302;1270;24287;-77
2022/09/08 07:55:16;;;;;;;6.70;2.60;;;;;;;16.68;39.49;100542.52;106641;1271;22570;-79
2022/09/08 07:58:04;;;;;;;8.30;2.50;;;;;;;16.77;39.33;100551.34;107056;1268;22625;-76
2022/09/08 08:00:51;;;;;;;9.40;2.90;;;;;;;16.87;39.23;100552.41;107911;1268;22729;-77
2022/09/08 08:03:22;;;;;;;3.70;2.30;;;;;;;16.99;38.83;100553.63;108339;1268;22464;-77
2022/09/08 08:06:10;;;;;;;4.00;2.20;;;;;;;17.11;38.43;100555.60;108096;1268;22585;-76
2022/09/08 08:09:12;;;;;;;5.90;2.50;;;;;;;17.23;38.11;100546.45;108888;1268;22516;-76
2022/09/08 08:12:14;;;;;;;5.60;2.00;;;;;;;17.40;38.16;100541.25;108983;1269;22528;-75
2022/09/08 08:14:57;;;;;;;3.50;2.30;;;;;;;17.56;37.55;100543.52;108136;1268;25306;-77
2022/09/08 08:17:29;;;;;;;5.70;2.80;;;;;;;17.72;37.01;100550.63;107383;1269;24267;-76
2022/09/08 08:20:02;;;;;;;5.10;2.20;;;;;;;17.85;36.59;100544.98;107346;1268;22609;-77
2022/09/08 08:23:00;;;;;;;5.40;2.10;;;;;;;17.98;36.65;100536.67;107147;1268;25554;-75
2022/09/08 08:25:38;;;;;;;3.50;2.30;;;;;;;18.15;36.23;100538.03;107288;1268;25194;-77
2022/09/08 08:28:19;;;;;;;3.30;2.30;;;;;;;18.29;36.19;100533.75;106665;1270;25353;-76
2022/09/08 08:31:13;;;;;;;5.60;2.20;;;;;;;18.42;35.72;100526.98;106494;1268;22857;-76
2022/09/08 08:33:57;;;;;;;6.60;2.40;;;;;;;18.55;35.35;100527.36;106381;1267;25412;-78
2022/09/08 08:36:29;;;;;;;2.90;1.80;;;;;;;18.64;34.94;100523.25;105801;1276;22722;-78
2022/09/08 08:39:08;;;;;;;5.10;1.80;;;;;;;18.74;34.90;100521.27;105898;1274;22747;-77
2022/09/08 08:42:05;;;;;;;5.10;2.00;;;;;;;18.86;34.60;100525.08;105913;1274;22872;-79
2022/09/08 08:44:40;;;;;;;3.70;1.50;;;;;;;18.98;34.55;100527.23;106100;1274;25371;-79
2022/09/08 08:47:45;;;;;;;4.30;2.00;;;;;;;19.08;34.30;100527.73;106145;1274;24296;-80
2022/09/08 08:50:40;;;;;;;3.90;1.80;;;;;;;19.20;34.03;100526.00;105951;1276;22764;-76
2022/09/08 08:53:44;;;;;;;3.90;2.10;;;;;;;19.34;33.78;100523.42;105874;1276;22483;-77
2022/09/08 08:56:44;;;;;;;3.40;2.20;;;;;;;19.52;33.34;100514.25;106780;1267;25233;-77
2022/09/08 08:59:26;;;;;;;4.50;2.00;;;;;;;19.66;33.33;100512.88;106946;1267;25600;-78
2022/09/08 09:02:35;;;;;;;6.40;2.50;;;;;;;19.83;33.08;100513.60;107001;1268;23177;-75
2022/09/08 09:05:11;;;;;;;3.90;2.00;;;;;;;20.03;33.10;100516.27;107520;1267;24286;-76
2022/09/08 09:07:39;;;;;;;3.20;1.80;;;;;;;20.21;32.85;100509.02;107377;1267;23177;-76
2022/09/08 09:10:37;;;;;;;4.20;1.80;;;;;;;20.36;32.67;100506.47;107236;1267;22548;-78
2022/09/08 09:13:42;;;;;;;6.60;2.20;;;;;;;20.50;32.16;100504.90;106940;1267;22581;-78
2022/09/08 09:16:18;;;;;;;2.50;1.90;;;;;;;20.60;31.51;100500.36;106926;1267;22525;-74
2022/09/08 09:19:16;;;;;;;5.80;2.20;;;;;;;20.72;31.49;100494.17;107010;1267;25427;-75
2022/09/08 09:21:54;;;;;;;3.80;2.00;;;;;;;20.86;31.19;100494.56;106873;1267;22837;-77
2022/09/08 09:24:38;;;;;;;3.00;2.10;;;;;;;20.96;31.13;100484.95;106724;1267;22541;-79
2022/09/08 09:27:42;;;;;;;5.30;2.10;;;;;;;21.10;31.25;100483.19;106490;1273;22540;-76
2022/09/08 09:30:12;;;;;;;5.10;2.00;;;;;;;21.31;31.26;100472.63;106408;1273;25760;-75
2022/09/08 09:33:19;;;;;;;8.50;2.40;;;;;;;21.48;30.91;100464.91;106290;1273;24219;-76
2022/09/08 09:36:01;;;;;;;3.50;2.20;;;;;;;21.62;30.79;100463.05;106264;1274;22661;-79
2022/09/08 09:38:36;;;;;;;3.50;2.10;;;;;;;21.79;30.67;100461.33;106180;1273;25306;-74
2022/09/08 09:41:03;;;;;;;8.00;2.60;;;;;;;21.93;30.58;100465.90;106339;1272;22548;-80
2022/09/08 09:43:45;;;;;;;5.80;2.40;;;;;;;22.08;30.37;100460.02;106143;1276;24222;-77
2022/09/08 09:46:34;;;;;;;5.50;2.00;;;;;;;22.22;29.99;100461.58;106189;1273;22552;-78
2022/09/08 09:49:12;;;;;;;4.40;2.40;;;;;;;22.34;29.65;100461.65;106164;1272;25268;-76
2022/09/08 09:51:44;;;;;;;6.70;2.80;;;;;;;22.40;29.52;100451.41;106036;1273;23092;-76
2022/09/08 09:54:33;;;;;;;6.60;2.10;;;;;;;22.45;29.08;100444.18;105998;1274;22651;-76
2022/09/08 09:57:24;;;;;;;3.60;2.30;;;;;;;22.55;29.01;100438.71;105971;1273;25311;-77
2022/09/08 10:00:04;;;;;;;9.30;2.20;;;;;;;22.75;29.19;100444.08;105723;1277;25315;-76
2022/09/08 10:02:59;;;;;;;4.20;2.40;;;;;;;22.86;28.78;100448.29;105973;1274;24449;-75
2022/09/08 10:06:03;;;;;;;5.00;2.50;;;;;;;23.04;28.62;100452.72;106076;1274;22563;-77
2022/09/08 10:09:02;;;;;;;3.20;2.10;;;;;;;23.17;28.65;100450.52;105981;1274;22557;-78
2022/09/08 10:12:01;;;;;;;5.80;2.50;;;;;;;23.22;28.18;100443.73;105804;1274;22790;-79
2022/09/08 10:14:42;;;;;;;4.00;2.10;;;;;;;23.26;27.94;100446.95;105939;1274;22556;-78
2022/09/08 10:17:38;;;;;;;5.40;2.80;;;;;;;23.36;28.19;100449.77;106068;1274;23918;-78
2022/09/08 10:20:23;;;;;;;7.50;2.30;;;;;;;23.39;28.08;100448.70;106522;1267;22544;-78
2022/09/08 10:23:10;;;;;;;4.70;2.30;;;;;;;23.43;28.13;100446.62;106360;1268;24266;-75
2022/09/08 10:26:09;;;;;;;2.50;2.10;;;;;;;23.48;27.52;100451.16;106014;1267;24380;-77
2022/09/08 10:29:00;;;;;;;3.70;1.90;;;;;;;23.39;27.54;100452.45;106451;1268;22548;-78
2022/09/08 10:32:01;;;;;;;4.80;2.20;;;;;;;23.37;27.50;100445.58;106470;1267;22531;-77
2022/09/08 10:34:37;;;;;;;4.60;2.10;;;;;;;23.49;27.68;100453.29;106352;1268;26533;-77
2022/09/08 10:37:23;;;;;;;6.30;2.50;;;;;;;23.60;27.47;100457.46;106393;1267;22684;-77
2022/09/08 10:40:05;;;;;;;4.40;2.50;;;;;;;23.74;27.46;100459.83;106420;1267;22541;-75
2022/09/08 10:42:52;;;;;;;8.00;2.80;;;;;;;23.97;27.37;100459.29;106507;1267;22604;-78
2022/09/08 10:45:32;;;;;;;5.70;2.20;;;;;;;24.26;27.29;100450.77;106563;1267;26503;-78
2022/09/08 10:48:39;;;;;;;6.30;2.20;;;;;;;24.39;26.90;100452.97;106778;1268;22710;-87
2022/09/08 10:51:21;;;;;;;6.60;2.10;;;;;;;24.48;26.53;100446.25;106875;1267;25640;-77
2022/09/08 10:54:06;;;;;;;4.80;2.40;;;;;;;24.57;26.25;100438.80;106589;1267;22641;-78
2022/09/08 10:56:38;;;;;;;7.00;1.90;;;;;;;24.70;25.97;100434.36;106712;1267;25293;-78
2022/09/08 10:59:27;;;;;;;4.50;2.20;;;;;;;24.86;25.75;100439.45;106637;1270;22643;-78
2022/09/08 11:02:29;;;;;;;4.20;2.00;;;;;;;24.92;25.18;100432.86;106309;1267;22613;-80
2022/09/08 11:05:25;;;;;;;4.30;1.90;;;;;;;25.07;25.36;100433.68;106408;1268;22646;-78
2022/09/08 11:08:49;;;;;;;7.40;2.10;;;;;;;25.21;25.29;100421.87;106360;1267;22538;-77
2022/09/08 11:11:19;;;;;;;6.10;1.90;;;;;;;25.37;24.76;100426.21;105686;1279;22564;-78
2022/09/08 11:14:02;;;;;;;4.20;1.80;;;;;;;25.41;24.73;100429.50;105627;1281;24343;-78
2022/09/08 11:16:48;;;;;;;8.70;2.60;;;;;;;25.56;24.55;100425.27;106255;1280;22770;-77
2022/09/08 11:19:40;;;;;;;7.60;2.00;;;;;;;25.62;24.43;100419.80;106959;1279;22565;-78
2022/09/08 11:22:16;;;;;;;4.00;2.10;;;;;;;25.77;24.37;100412.39;106553;1280;23507;-76
2022/09/08 11:25:15;;;;;;;;;;;;;;;26.00;24.10;100402.07;108028;1280;22596;-75
2022/09/08 11:28:04;;;;;;;4.90;1.90;;;;;;;26.19;23.72;100407.88;107134;1280;22584;-78
2022/09/08 11:30:36;;;;;;;6.80;2.10;;;;;;;26.39;23.73;100400.64;106370;1276;22611;-77
2022/09/08 11:33:35;;;;;;;7.00;2.00;;;;;;;26.52;23.48;100396.05;106323;1275;25351;-84
2022/09/08 11:36:47;;;;;;;4.80;2.20;;;;;;;26.62;23.21;100399.96;106175;1273;22566;-75
2022/09/08 11:39:42;;;;;;;5.10;1.80;;;;;;;26.71;23.16;100398.95;105646;1281;24215;-77
2022/09/08 11:42:28;;;;;;;3.80;2.10;;;;;;;26.73;22.69;100398.45;105674;1281;23762;-77
2022/09/08 11:45:14;;;;;;;;;;;;;;;26.76;22.69;100394.23;104559;1281;1471609;-77
2022/09/08 11:47:59;;;;;;;9.00;1.80;;;;;;;26.86;22.50;100392.73;105684;1277;25395;-76
2022/09/08 11:50:34;;;;;;;7.50;1.90;;;;;;;26.91;22.33;100394.15;105981;1275;26447;-76
2022/09/08 11:53:42;;;;;;;4.70;1.80;;;;;;;27.31;22.28;100397.54;106084;1274;22581;-78
2022/09/08 11:56:43;;;;;;;5.50;1.60;;;;;;;27.51;21.50;100393.98;105841;1276;22746;-76
2022/09/08 11:59:49;;;;;;;2.80;1.80;;;;;;;27.60;21.64;100394.73;105737;1280;22563;-77
2022/09/08 12:02:36;;;;;;;8.30;1.90;;;;;;;27.74;21.21;100394.71;105646;1280;22556;-76
2022/09/08 12:05:16;;;;;;;4.40;1.90;;;;;;;27.71;21.09;100385.57;105647;1278;22560;-76
2022/09/08 12:08:34;;;;;;;2.10;1.50;;;;;;;27.74;21.04;100378.45;105584;1280;22699;-78
2022/09/08 12:11:16;;;;;;;3.30;1.70;;;;;;;27.79;20.95;100371.91;105695;1280;22614;-77
2022/09/08 12:14:05;;;;;;;4.40;1.70;;;;;;;27.73;20.86;100366.19;105480;1280;24749;-76
2022/09/08 12:17:25;;;;;;;6.60;1.80;;;;;;;27.60;20.75;100368.13;106060;1267;22560;-78